createdAt,value
2022-11-03T00:02:27.088Z,53.38
2022-11-03T00:05:00.257Z,53.91
2022-11-03T00:07:29.084Z,54.09
2022-11-03T00:10:04.994Z,54.28
2022-11-03T00:12:36.587Z,54.21
2022-11-03T00:15:07.183Z,53.90
2022-11-03T00:17:35.342Z,54.41
2022-11-03T00:20:04.399Z,54.11
2022-11-03T00:22:33.791Z,54.66
2022-11-03T00:25:03.113Z,54.12
2022-11-03T00:27:31.429Z,54.50
2022-11-03T00:29:59.514Z,54.64
2022-11-03T00:32:29.739Z,54.84
2022-11-03T00:34:58.290Z,54.84
2022-11-03T00:37:30.550Z,54.90
2022-11-03T00:40:03.446Z,54.72
2022-11-03T00:42:35.573Z,55.18
2022-11-03T00:45:03.741Z,54.72
2022-11-03T00:47:55.989Z,54.95
2022-11-03T00:50:27.138Z,55.18
2022-11-03T00:52:57.423Z,55.04
2022-11-03T00:55:28.900Z,54.97
2022-11-03T00:57:58.355Z,55.20
2022-11-03T01:00:26.448Z,55.56
2022-11-03T01:02:57.269Z,55.47
2022-11-03T01:05:57.567Z,55.29
2022-11-03T01:08:28.119Z,55.43
2022-11-03T01:11:14.591Z,55.61
2022-11-03T01:13:43.242Z,56.05
2022-11-03T01:16:11.342Z,55.96
2022-11-03T01:18:41.185Z,55.91
2022-11-03T01:21:10.124Z,56.01
2022-11-03T01:23:40.739Z,56.19
2022-11-03T01:26:10.398Z,56.14
2022-11-03T01:28:40.256Z,56.39
2022-11-03T01:31:10.466Z,56.34
2022-11-03T01:33:39.541Z,56.41
2022-11-03T01:36:11.259Z,56.39
2022-11-03T01:38:41.409Z,56.68
2022-11-03T01:41:12.293Z,56.48
2022-11-03T01:43:41.798Z,56.56
2022-11-03T01:46:17.281Z,57.34
2022-11-03T01:48:48.573Z,56.96
2022-11-03T01:51:25.219Z,56.87
2022-11-03T01:53:58.537Z,56.81
2022-11-03T01:56:28.479Z,57.65
2022-11-03T01:59:00.691Z,57.62
2022-11-03T02:01:30.080Z,57.88
2022-11-03T02:04:03.140Z,57.45
2022-11-03T02:06:33.441Z,58.16
2022-11-03T02:09:07.046Z,57.90
2022-11-03T02:11:54.301Z,57.86
2022-11-03T02:14:27.440Z,58.18
2022-11-03T02:16:59.791Z,58.00
2022-11-03T02:19:35.153Z,58.02
2022-11-03T02:22:10.902Z,57.91
2022-11-03T02:24:54.222Z,58.27
2022-11-03T02:27:28.148Z,58.33
2022-11-03T02:29:58.198Z,58.56
2022-11-03T02:32:30.589Z,58.68
2022-11-03T02:35:07.625Z,58.66
2022-11-03T02:37:38.976Z,58.47
2022-11-03T02:40:14.187Z,58.79
2022-11-03T02:42:48.653Z,58.92
2022-11-03T02:45:21.921Z,58.54
2022-11-03T02:47:52.524Z,58.68
2022-11-03T02:50:30.142Z,59.04
2022-11-03T02:52:59.122Z,58.41
2022-11-03T02:55:38.598Z,58.67
2022-11-03T02:58:18.873Z,58.86
2022-11-03T03:00:53.384Z,59.03
2022-11-03T03:03:28.624Z,58.97
2022-11-03T03:06:04.321Z,59.18
2022-11-03T03:08:34.766Z,59.13
2022-11-03T03:11:07.532Z,59.28
2022-11-03T03:13:37.974Z,59.27
2022-11-03T03:16:15.200Z,59.25
2022-11-03T03:18:50.690Z,59.44
2022-11-03T03:21:24.178Z,58.86
2022-11-03T03:24:00.585Z,59.52
2022-11-03T03:26:34.934Z,59.35
2022-11-03T03:29:13.554Z,59.23
2022-11-03T03:31:48.034Z,59.54
2022-11-03T03:34:34.757Z,59.75
2022-11-03T03:37:07.227Z,59.47
2022-11-03T03:39:40.947Z,59.55
2022-11-03T03:42:13.189Z,59.82
2022-11-03T03:44:47.031Z,60.28
2022-11-03T03:47:26.510Z,59.72
2022-11-03T03:49:57.123Z,60.00
2022-11-03T03:52:25.705Z,59.74
2022-11-03T03:54:54.746Z,60.00
2022-11-03T03:57:26.016Z,59.69
2022-11-03T03:59:56.318Z,59.61
2022-11-03T04:02:24.902Z,59.62
2022-11-03T04:04:53.436Z,59.94
2022-11-03T04:07:43.772Z,60.22
2022-11-03T04:10:12.929Z,59.99
2022-11-03T04:13:00.360Z,59.91
2022-11-03T04:15:48.461Z,60.14
2022-11-03T04:18:35.961Z,60.02
2022-11-03T04:21:22.310Z,60.41
2022-11-03T04:23:50.899Z,60.44
2022-11-03T04:26:23.059Z,60.69
2022-11-03T04:28:52.374Z,60.95
2022-11-03T04:31:23.436Z,60.48
2022-11-03T04:33:52.425Z,60.63
2022-11-03T04:36:27.358Z,60.67
2022-11-03T04:38:55.937Z,60.47
2022-11-03T04:41:27.187Z,60.73
2022-11-03T04:43:56.735Z,60.81
2022-11-03T04:46:29.045Z,61.08
2022-11-03T04:49:00.791Z,60.77
2022-11-03T04:51:33.149Z,60.78
2022-11-03T04:54:06.121Z,60.90
2022-11-03T04:56:36.352Z,61.24
2022-11-03T04:59:04.699Z,61.41
2022-11-03T05:01:37.538Z,61.09
2022-11-03T05:04:12.943Z,61.00
2022-11-03T05:06:42.786Z,61.09
2022-11-03T05:09:17.575Z,61.05
2022-11-03T05:11:50.107Z,61.19
2022-11-03T05:14:22.290Z,60.97
2022-11-03T05:16:54.529Z,60.79
2022-11-03T05:19:26.341Z,61.22
2022-11-03T05:21:59.712Z,61.15
2022-11-03T05:24:28.876Z,60.91
2022-11-03T05:27:00.770Z,61.17
2022-11-03T05:29:34.600Z,61.39
2022-11-03T05:32:04.945Z,61.32
2022-11-03T05:34:37.663Z,61.36
2022-11-03T05:37:26.398Z,61.05
2022-11-03T05:39:57.863Z,61.16
2022-11-03T05:42:34.511Z,61.13
2022-11-03T05:45:06.444Z,60.94
2022-11-03T05:47:39.482Z,60.90
2022-11-03T05:50:20.539Z,61.04
2022-11-03T05:52:50.795Z,61.16
2022-11-03T05:55:31.733Z,61.47
2022-11-03T05:58:01.984Z,61.51
2022-11-03T06:00:35.406Z,61.15
2022-11-03T06:03:07.164Z,60.94
2022-11-03T06:05:36.655Z,60.94
2022-11-03T06:08:18.351Z,61.34
2022-11-03T06:10:52.828Z,60.85
2022-11-03T06:13:25.952Z,61.10
2022-11-03T06:15:59.901Z,60.85
2022-11-03T06:18:34.382Z,61.10
2022-11-03T06:21:09.856Z,60.83
2022-11-03T06:23:39.721Z,60.95
2022-11-03T06:26:17.909Z,60.78
2022-11-03T06:28:47.250Z,61.13
2022-11-03T06:31:23.395Z,60.68
2022-11-03T06:33:54.415Z,60.39
2022-11-03T06:36:24.865Z,60.58
2022-11-03T06:38:57.121Z,60.59
2022-11-03T06:41:28.234Z,60.96
2022-11-03T06:43:57.555Z,60.53
2022-11-03T06:46:27.436Z,60.63
2022-11-03T06:48:59.696Z,60.11
2022-11-03T06:51:30.625Z,60.63
2022-11-03T06:54:01.355Z,60.33
2022-11-03T06:56:33.369Z,60.34
2022-11-03T06:59:02.584Z,60.13
2022-11-03T07:01:35.393Z,60.25
2022-11-03T07:04:15.222Z,60.07
2022-11-03T07:06:53.033Z,60.00
2022-11-03T07:10:01.486Z,60.02
2022-11-03T07:12:30.042Z,59.91
2022-11-03T07:14:59.943Z,59.66
2022-11-03T07:17:28.826Z,59.90
2022-11-03T07:20:00.773Z,59.69
2022-11-03T07:22:29.381Z,59.88
2022-11-03T07:25:02.181Z,59.71
2022-11-03T07:27:33.117Z,59.73
2022-11-03T07:30:12.813Z,59.63
2022-11-03T07:32:41.155Z,59.69
2022-11-03T07:35:53.190Z,59.98
2022-11-03T07:38:24.117Z,59.40
2022-11-03T07:40:54.144Z,59.54
2022-11-03T07:43:26.803Z,59.43
2022-11-03T07:45:56.188Z,59.78
2022-11-03T07:48:28.283Z,59.79
2022-11-03T07:51:00.768Z,59.36
2022-11-03T07:53:37.971Z,59.32
2022-11-03T07:56:16.845Z,59.39
2022-11-03T07:58:45.240Z,59.50
2022-11-03T08:01:24.313Z,58.98
2022-11-03T08:03:53.166Z,59.23
2022-11-03T08:06:22.773Z,58.80
2022-11-03T08:08:50.681Z,59.28
2022-11-03T08:11:21.034Z,58.60
2022-11-03T08:13:51.704Z,58.66
2022-11-03T08:16:21.786Z,58.99
2022-11-03T08:18:49.783Z,58.80
2022-11-03T08:21:18.296Z,58.89
2022-11-03T08:23:48.008Z,58.77
2022-11-03T08:26:16.145Z,58.75
2022-11-03T08:28:44.240Z,58.86
2022-11-03T08:31:13.319Z,58.67
2022-11-03T08:33:41.860Z,58.62
2022-11-03T08:36:10.694Z,58.40
2022-11-03T08:38:38.826Z,58.78
2022-11-03T08:41:08.260Z,58.47
2022-11-03T08:43:36.514Z,58.37
2022-11-03T08:46:15.462Z,58.83
2022-11-03T08:48:47.374Z,58.27
2022-11-03T08:51:16.488Z,58.60
2022-11-03T08:53:44.631Z,58.41
2022-11-03T08:56:17.964Z,58.38
2022-11-03T08:58:47.260Z,58.35
2022-11-03T09:01:15.822Z,58.49
2022-11-03T09:03:45.869Z,58.46
2022-11-03T09:06:13.915Z,58.70
2022-11-03T09:11:31.457Z,58.40
2022-11-03T09:14:00.585Z,58.53
2022-11-03T09:16:28.605Z,58.53
2022-11-03T09:18:56.421Z,58.80
2022-11-03T09:21:24.558Z,58.62
2022-11-03T09:23:52.581Z,58.54
2022-11-03T09:26:20.539Z,58.49
2022-11-03T09:28:50.757Z,58.47
2022-11-03T09:31:18.779Z,58.77
2022-11-03T09:33:46.848Z,58.72
2022-11-03T09:36:14.966Z,58.60
2022-11-03T09:38:42.846Z,58.33
2022-11-03T09:41:26.603Z,58.09
2022-11-03T09:43:59.005Z,58.38
2022-11-03T09:46:28.386Z,58.39
2022-11-03T09:48:57.281Z,58.22
2022-11-03T09:51:27.692Z,58.25
2022-11-03T09:53:59.302Z,58.29
2022-11-03T09:56:28.373Z,57.79
2022-11-03T09:59:01.132Z,57.72
2022-11-03T10:01:29.788Z,57.83
2022-11-03T10:04:01.756Z,57.46
2022-11-03T10:06:31.241Z,57.78
2022-11-03T10:08:59.161Z,57.50
2022-11-03T10:11:27.088Z,57.33
2022-11-03T10:13:59.289Z,57.35
2022-11-03T10:16:27.889Z,57.68
2022-11-03T10:18:56.614Z,57.24
2022-11-03T10:21:28.457Z,57.26
2022-11-03T10:23:56.425Z,57.50
2022-11-03T10:26:25.081Z,56.53
2022-11-03T10:29:01.767Z,56.76
2022-11-03T10:31:37.515Z,56.55
2022-11-03T10:34:06.108Z,56.16
2022-11-03T10:36:36.058Z,56.35
2022-11-03T10:39:26.986Z,56.26
2022-11-03T10:41:59.610Z,56.31
2022-11-03T10:44:31.274Z,56.16
2022-11-03T10:47:00.497Z,55.96
2022-11-03T10:49:30.218Z,56.03
2022-11-03T10:52:09.736Z,55.79
2022-11-03T10:54:38.231Z,55.88
2022-11-03T10:57:06.483Z,55.79
2022-11-03T10:59:38.803Z,55.38
2022-11-03T11:02:17.035Z,55.19
2022-11-03T11:04:46.186Z,55.33
2022-11-03T11:07:24.920Z,55.34
2022-11-03T11:09:53.707Z,55.49
2022-11-03T11:12:24.924Z,55.06
2022-11-03T11:14:56.861Z,55.09
2022-11-03T11:17:49.765Z,55.23
2022-11-03T11:20:32.676Z,55.26
2022-11-03T11:23:46.404Z,55.48
2022-11-03T11:26:33.860Z,55.25
2022-11-03T11:29:44.938Z,55.06
2022-11-03T11:32:53.043Z,54.96
2022-11-03T11:36:12.105Z,55.13
2022-11-03T11:38:57.786Z,54.61
2022-11-03T11:42:02.448Z,54.93
2022-11-03T11:44:50.351Z,54.51
2022-11-03T11:47:31.358Z,54.25
2022-11-03T11:50:19.544Z,54.10
2022-11-03T11:52:51.161Z,53.99
2022-11-03T11:55:28.374Z,54.21
2022-11-03T11:57:58.165Z,53.70
2022-11-03T12:00:28.918Z,53.67
2022-11-03T12:02:57.807Z,53.61
2022-11-03T12:05:28.409Z,53.29
2022-11-03T12:07:57.597Z,53.23
2022-11-03T12:10:29.220Z,53.45
2022-11-03T12:12:58.788Z,53.44
2022-11-03T12:16:06.123Z,53.63
2022-11-03T12:18:40.675Z,53.45
2022-11-03T12:21:14.075Z,53.36
2022-11-03T12:23:44.317Z,53.12
2022-11-03T12:26:40.575Z,54.07
2022-11-03T12:29:09.193Z,53.66
2022-11-03T12:31:37.271Z,53.01
2022-11-03T12:34:05.561Z,53.03
2022-11-03T12:36:33.545Z,53.70
2022-11-03T12:39:01.530Z,55.12
2022-11-03T12:41:31.038Z,55.43
2022-11-03T12:43:58.976Z,56.03
2022-11-03T12:46:27.578Z,56.25
2022-11-03T12:48:55.525Z,56.20
2022-11-03T12:51:24.941Z,56.83
2022-11-03T12:53:53.661Z,57.14
2022-11-03T12:56:21.647Z,57.51
2022-11-03T12:58:51.092Z,58.00
2022-11-03T13:01:19.232Z,57.99
2022-11-03T13:03:47.200Z,58.43
2022-11-03T13:06:15.340Z,58.42
2022-11-03T13:08:44.728Z,58.83
2022-11-03T13:11:28.342Z,58.93
2022-11-03T13:13:58.170Z,59.40
2022-11-03T13:16:26.143Z,59.13
2022-11-03T13:18:54.058Z,59.78
2022-11-03T13:21:22.166Z,59.84
2022-11-03T13:23:50.050Z,60.01
2022-11-03T13:26:19.285Z,60.14
2022-11-03T13:28:47.670Z,60.17
2022-11-03T13:31:17.048Z,60.24
2022-11-03T13:33:44.995Z,60.20
2022-11-03T13:36:13.159Z,60.57
2022-11-03T13:38:41.144Z,60.56
2022-11-03T13:41:10.048Z,60.44
2022-11-03T13:43:37.921Z,60.81
2022-11-03T13:46:06.117Z,60.72
2022-11-03T13:51:23.765Z,60.86
2022-11-03T13:59:28.960Z,60.41
2022-11-03T14:04:46.781Z,60.75
2022-11-03T14:07:14.717Z,60.65
2022-11-03T14:09:42.617Z,60.47
2022-11-03T14:12:28.402Z,60.88
2022-11-03T14:14:57.813Z,60.67
2022-11-03T14:17:27.650Z,60.45
2022-11-03T14:20:02.564Z,60.91
2022-11-03T14:22:32.958Z,60.81
2022-11-03T14:25:01.445Z,60.82
2022-11-03T14:27:30.057Z,61.03
2022-11-03T14:29:58.360Z,61.12
2022-11-03T14:32:26.268Z,60.68
2022-11-03T14:34:54.682Z,60.41
2022-11-03T14:37:25.528Z,60.89
2022-11-03T14:39:55.782Z,60.63
2022-11-03T14:42:22.993Z,61.02
2022-11-03T14:47:22.122Z,60.54
2022-11-03T14:49:50.566Z,60.31
2022-11-03T14:52:19.241Z,61.13
2022-11-03T14:54:48.729Z,60.42
2022-11-03T14:57:16.681Z,60.41
2022-11-03T14:59:48.016Z,60.99
2022-11-03T15:02:18.633Z,61.04
2022-11-03T15:04:46.989Z,60.98
2022-11-03T15:07:14.995Z,60.49
2022-11-03T15:09:42.887Z,61.12
2022-11-03T15:12:12.705Z,60.93
2022-11-03T15:28:06.971Z,61.77
2022-11-03T15:30:35.638Z,61.71
2022-11-03T15:33:03.891Z,62.10
2022-11-03T15:35:31.888Z,62.04
2022-11-03T15:38:00.009Z,62.38
2022-11-03T15:40:31.419Z,62.51
2022-11-03T15:45:40.331Z,62.73
2022-11-03T15:48:09.238Z,63.40
2022-11-03T15:50:42.856Z,63.29
2022-11-03T15:53:17.099Z,63.32
2022-11-03T15:56:02.335Z,63.82
2022-11-03T15:58:34.847Z,64.10
2022-11-03T16:01:08.196Z,64.31
2022-11-03T16:03:36.140Z,63.79
2022-11-03T16:06:08.744Z,64.25
2022-11-03T16:08:39.304Z,64.62
2022-11-03T16:11:10.001Z,64.65
2022-11-03T16:13:46.886Z,64.31
2022-11-03T16:16:16.628Z,64.21
2022-11-03T16:18:45.128Z,64.69
2022-11-03T16:21:13.729Z,64.94
2022-11-03T16:23:45.751Z,65.01
2022-11-03T16:26:16.605Z,64.97
2022-11-03T16:28:55.837Z,65.25
2022-11-03T16:31:29.137Z,65.11
2022-11-03T16:34:00.224Z,65.01
2022-11-03T16:36:28.767Z,65.69
2022-11-03T16:38:57.940Z,65.30
2022-11-03T16:41:26.254Z,65.89
2022-11-03T16:43:56.657Z,65.26
2022-11-03T16:46:26.204Z,65.79
2022-11-03T16:48:56.470Z,65.67
2022-11-03T16:51:25.208Z,65.73
2022-11-03T16:53:56.736Z,65.55
2022-11-03T16:56:25.652Z,65.75
2022-11-03T16:58:55.543Z,65.72
2022-11-03T17:01:28.843Z,65.89
2022-11-03T17:03:56.959Z,65.45
2022-11-03T17:06:25.540Z,65.67
2022-11-03T17:08:56.029Z,65.38
2022-11-03T17:11:37.416Z,65.53
2022-11-03T17:14:07.753Z,65.74
2022-11-03T17:16:45.659Z,65.38
2022-11-03T17:19:13.976Z,65.76
2022-11-03T17:21:48.631Z,65.56
2022-11-03T17:24:17.098Z,66.07
2022-11-03T17:27:11.886Z,65.82
2022-11-03T17:29:43.429Z,65.99
2022-11-03T17:32:24.616Z,65.77
2022-11-03T17:34:56.367Z,65.79
2022-11-03T17:37:26.844Z,65.67
2022-11-03T17:39:55.326Z,65.96
2022-11-03T17:42:24.936Z,65.67
2022-11-03T17:44:55.350Z,66.41
2022-11-03T17:47:26.390Z,66.00
2022-11-03T17:49:55.079Z,66.05
2022-11-03T17:52:28.198Z,66.17
2022-11-03T17:54:59.681Z,66.29
2022-11-03T17:57:31.687Z,66.27
2022-11-03T18:00:01.585Z,66.03
2022-11-03T18:02:37.965Z,66.60
2022-11-03T18:05:22.151Z,66.47
2022-11-03T18:07:54.182Z,66.51
2022-11-03T18:10:23.366Z,66.23
2022-11-03T18:13:10.834Z,66.78
2022-11-03T18:15:41.657Z,66.75
2022-11-03T18:18:20.773Z,66.78
2022-11-03T18:20:53.687Z,66.50
2022-11-03T18:23:24.378Z,66.76
2022-11-03T18:25:53.472Z,66.50
2022-11-03T18:28:21.581Z,66.42
2022-11-03T18:30:53.292Z,66.76
2022-11-03T18:33:27.711Z,66.45
2022-11-03T18:35:56.259Z,66.54
2022-11-03T18:38:26.926Z,66.38
2022-11-03T18:40:55.143Z,66.44
2022-11-03T18:43:28.364Z,66.39
2022-11-03T18:45:56.928Z,66.21
2022-11-03T18:48:26.809Z,66.74
2022-11-03T18:50:56.899Z,66.15
2022-11-03T18:53:31.979Z,66.19
2022-11-03T18:56:02.590Z,66.66
2022-11-03T18:58:31.524Z,66.35
2022-11-03T19:01:00.102Z,66.56
2022-11-03T19:03:35.466Z,66.44
2022-11-03T19:06:04.117Z,66.09
2022-11-03T19:08:34.474Z,66.13
2022-11-03T19:11:05.220Z,66.15
2022-11-03T19:13:40.619Z,66.27
2022-11-03T19:16:14.016Z,66.16
2022-11-03T19:18:46.957Z,66.29
2022-11-03T19:21:18.904Z,66.77
2022-11-03T19:23:48.140Z,66.85
2022-11-03T19:26:23.192Z,66.68
2022-11-03T19:28:57.450Z,66.97
2022-11-03T19:31:32.391Z,66.95
2022-11-03T19:34:02.772Z,67.43
2022-11-03T19:36:32.632Z,67.05
2022-11-03T19:39:01.691Z,67.43
2022-11-03T19:41:47.537Z,66.94
2022-11-03T19:44:15.775Z,67.04
2022-11-03T19:46:44.349Z,66.62
2022-11-03T19:49:16.056Z,66.34
2022-11-03T19:51:44.606Z,66.63
2022-11-03T19:54:17.750Z,66.29
2022-11-03T19:56:47.185Z,66.00
2022-11-03T19:59:17.171Z,65.49
2022-11-03T20:01:45.783Z,64.55
2022-11-03T20:04:16.334Z,64.24
2022-11-03T20:06:44.311Z,64.26
2022-11-03T20:09:19.230Z,64.29
2022-11-03T20:11:49.482Z,63.90
2022-11-03T20:14:27.593Z,63.88
2022-11-03T20:16:59.358Z,63.76
2022-11-03T20:19:32.423Z,63.40
2022-11-03T20:22:01.520Z,62.68
2022-11-03T20:24:30.345Z,62.42
2022-11-03T20:26:58.778Z,62.69
2022-11-03T20:29:29.620Z,61.65
2022-11-03T20:32:01.914Z,62.31
2022-11-03T20:34:31.411Z,62.16
2022-11-03T20:37:04.565Z,62.72
2022-11-03T20:39:34.212Z,62.24
2022-11-03T20:42:02.184Z,62.58
2022-11-03T20:44:30.740Z,62.66
2022-11-03T20:46:58.737Z,63.31
2022-11-03T20:49:26.785Z,63.24
2022-11-03T20:51:56.493Z,63.06
2022-11-03T20:54:24.502Z,62.99
2022-11-03T20:56:52.492Z,62.82
2022-11-03T20:59:23.273Z,63.13
2022-11-03T21:01:52.255Z,63.61
2022-11-03T21:04:22.714Z,63.24
2022-11-03T21:06:51.100Z,63.79
2022-11-03T21:09:21.115Z,63.93
2022-11-03T21:11:49.390Z,63.98
2022-11-03T21:14:22.974Z,63.98
2022-11-03T21:17:08.279Z,64.13
2022-11-03T21:19:56.470Z,64.87
2022-11-03T21:25:18.896Z,65.18
2022-11-03T21:27:50.043Z,65.58
2022-11-03T21:30:18.809Z,65.98
2022-11-03T21:32:48.535Z,65.96
2022-11-03T21:35:19.958Z,66.46
2022-11-03T21:37:48.838Z,66.21
2022-11-03T21:40:18.889Z,66.20
2022-11-03T21:43:05.355Z,66.51
2022-11-03T21:45:34.491Z,67.09
2022-11-03T21:48:20.514Z,66.92
2022-11-03T21:50:49.729Z,67.12
2022-11-03T21:53:17.843Z,67.10
2022-11-03T21:55:49.764Z,66.31
2022-11-03T21:58:17.878Z,66.65
2022-11-03T22:00:47.233Z,67.04
2022-11-03T22:03:15.962Z,66.30
2022-11-03T22:05:44.103Z,67.09
2022-11-03T22:08:12.288Z,66.54
2022-11-03T22:10:41.741Z,66.64
2022-11-03T22:13:12.157Z,66.46
2022-11-03T22:15:58.385Z,66.81
2022-11-03T22:18:27.242Z,66.51
2022-11-03T22:21:15.814Z,66.44
2022-11-03T22:24:01.607Z,65.96
2022-11-03T22:26:47.566Z,66.37
2022-11-03T22:29:34.382Z,65.76
2022-11-03T22:32:02.732Z,66.20
2022-11-03T22:34:48.544Z,65.98
2022-11-03T22:37:16.831Z,66.24
2022-11-03T22:40:02.801Z,65.94
2022-11-03T22:42:49.813Z,65.29
2022-11-03T22:45:36.658Z,65.34
2022-11-03T22:48:05.396Z,65.39
2022-11-03T22:50:34.375Z,65.30
2022-11-03T22:53:26.132Z,65.75
2022-11-03T22:55:53.875Z,65.05
2022-11-03T22:58:25.327Z,65.54
2022-11-03T23:00:58.040Z,65.76
2022-11-03T23:03:26.187Z,65.09
2022-11-03T23:05:54.451Z,65.08
2022-11-03T23:10:55.604Z,65.22
2022-11-03T23:13:23.638Z,65.46
2022-11-03T23:15:52.181Z,64.82
2022-11-03T23:18:39.729Z,65.22
2022-11-03T23:21:09.171Z,65.01
2022-11-03T23:23:55.250Z,64.61
2022-11-03T23:26:25.075Z,64.59
2022-11-03T23:28:55.684Z,64.76
2022-11-03T23:31:23.764Z,64.31
2022-11-03T23:33:53.687Z,64.59
2022-11-03T23:36:23.772Z,64.75
2022-11-03T23:38:54.706Z,64.87
2022-11-03T23:41:25.868Z,64.52
2022-11-03T23:43:56.826Z,64.52
2022-11-03T23:46:44.001Z,64.70
2022-11-03T23:49:14.313Z,64.27
2022-11-03T23:51:43.721Z,64.50
2022-11-03T23:54:13.672Z,65.00
2022-11-03T23:57:00.949Z,65.00
2022-11-03T23:59:29.909Z,64.72
